Cooperstown Junction, New York
Current Conditions -  °F | °C
As of 11:55 PM on Saturday 25 Oct 2014 (Local Time) from KNY0 Reporting Station
Scattered Clouds Scattered Clouds  
Wind Chill: 45°   Ceiling: Unl
Heat Index: 47°   Visibility: 7mi
Dew Point: 45°   Wind: 5mph
Humidity: 91%   Direction: 270°W
Pressure: 29.52"   Gusts: NA
Location:  42.5423°N, 74.8983°W
Report Text: KNY0 260355Z AUTO 27004KT 7SM SCT034 09/07 A2952 RMK AO2 T00850071
Loading
Personal Weather Stations






























Interactive Weather Map
Tropical Storm Tracking
New forecast layout! Learn more

10-Day Weather Forecast

Advertisements
Track Severe Weather on mobile